Time;durP1;ratioP1;P1;durP2;ratioP2;P2;SDS_P1;SDS_P2;PMS_P1;PMS_P2;Temp;Humidity;BMP_temperature;BMP_pressure;BME280_temperature;BME280_humidity;BME280_pressure;Samples;Min_cycle;Max_cycle;Signal;HPM_P1;HPM_P2
2021/07/10 00:00:14;;;;;;;1.02;1.02;;;24.80;51.10;;;-147.20;100.00;58430.41;5114937;28;20086;-49
2021/07/10 00:02:40;;;;;;;0.80;0.80;;;24.80;51.20;;;-147.20;100.00;58430.41;5114561;28;20131;-54
2021/07/10 00:05:09;;;;;;;1.00;1.00;;;24.80;51.20;;;-147.20;100.00;58430.41;5094997;28;20052;-52
2021/07/10 00:07:35;;;;;;;0.88;0.88;;;24.80;51.20;;;-147.20;100.00;58430.41;5114363;28;20380;-47
2021/07/10 00:10:06;;;;;;;0.85;0.85;;;24.80;51.20;;;-147.20;100.00;58430.41;5114477;28;20066;-54
2021/07/10 00:12:32;;;;;;;1.20;1.10;;;24.80;51.20;;;-147.20;100.00;58430.41;5096132;28;20074;-50
2021/07/10 00:14:58;;;;;;;1.10;1.00;;;24.80;51.20;;;-147.20;100.00;58430.41;5114890;28;20138;-50
2021/07/10 00:17:24;;;;;;;0.80;0.80;;;24.80;51.30;;;-147.20;100.00;58430.41;5114206;28;20403;-52
2021/07/10 00:19:52;;;;;;;1.05;1.02;;;24.80;51.30;;;-147.20;100.00;58430.41;5114107;28;20530;-54
2021/07/10 00:22:19;;;;;;;0.80;0.80;;;24.80;51.30;;;-147.20;100.00;58430.41;5114234;28;20082;-49
2021/07/10 00:24:45;;;;;;;0.98;0.98;;;24.80;51.30;;;-147.20;100.00;58430.41;5114507;28;20048;-52
2021/07/10 00:27:11;;;;;;;0.95;0.95;;;24.80;51.30;;;-147.20;100.00;58430.41;5114097;28;20058;-47
2021/07/10 00:29:36;;;;;;;0.80;0.80;;;24.80;51.30;;;-147.20;100.00;58430.41;5077411;28;20044;-50
2021/07/10 00:32:03;;;;;;;1.15;1.10;;;24.80;51.30;;;-147.20;100.00;58430.41;5114385;28;20039;-50
2021/07/10 00:34:29;;;;;;;0.80;0.80;;;24.80;51.30;;;-147.20;100.00;58430.41;5096157;28;20857;-51
2021/07/10 00:36:55;;;;;;;1.05;1.02;;;24.80;51.40;;;-147.20;100.00;58430.41;5094388;28;20059;-51
2021/07/10 00:39:21;;;;;;;0.98;0.93;;;24.80;51.40;;;-147.20;100.00;58430.41;5113785;28;20047;-50
2021/07/10 00:41:46;;;;;;;1.08;0.90;;;24.80;51.40;;;-147.20;100.00;58430.41;5114387;28;20040;-54
2021/07/10 00:44:12;;;;;;;0.93;0.93;;;24.80;51.40;;;-147.20;100.00;58430.41;5114109;28;20054;-52
2021/07/10 00:46:38;;;;;;;0.90;0.90;;;24.70;51.30;;;-147.20;100.00;58430.41;5113866;28;20053;-51
2021/07/10 00:49:04;;;;;;;0.77;0.77;;;24.70;51.30;;;-147.20;100.00;58430.41;5114107;28;20051;-53
2021/07/10 00:51:30;;;;;;;1.08;0.98;;;24.70;51.30;;;-147.20;100.00;58430.41;5114244;28;20092;-49
2021/07/10 00:53:56;;;;;;;0.95;0.95;;;24.70;51.40;;;-147.20;100.00;58430.41;5113719;28;20052;-54
2021/07/10 00:56:22;;;;;;;0.93;0.93;;;24.70;51.40;;;-147.20;100.00;58430.41;5113709;28;20399;-52
2021/07/10 00:58:49;;;;;;;0.70;0.70;;;24.70;51.40;;;-147.20;100.00;58430.41;5113486;28;20066;-51
2021/07/10 01:01:15;;;;;;;0.90;0.90;;;24.70;51.40;;;-147.20;100.00;58430.41;5113833;28;20047;-55
2021/07/10 01:03:44;;;;;;;0.90;0.90;;;24.70;51.40;;;-147.20;100.00;58430.41;5078461;28;20039;-53
2021/07/10 01:06:12;;;;;;;0.75;0.75;;;24.70;51.40;;;-147.20;100.00;58430.41;5111896;28;20058;-49
2021/07/10 01:08:38;;;;;;;1.02;1.00;;;24.70;51.50;;;-147.20;100.00;58430.41;5095361;28;20043;-50
2021/07/10 01:11:04;;;;;;;0.90;0.90;;;24.70;51.50;;;-147.20;100.00;58430.41;5113528;28;20197;-49
2021/07/10 01:13:31;;;;;;;1.02;1.00;;;24.70;51.50;;;-147.20;100.00;58430.41;5113238;28;20044;-54
2021/07/10 01:15:57;;;;;;;0.98;0.88;;;24.70;51.50;;;-147.20;100.00;58430.41;5113704;28;20060;-51
2021/07/10 01:18:23;;;;;;;0.90;0.90;;;24.70;51.50;;;-147.20;100.00;58430.41;5113140;28;20043;-50
2021/07/10 01:20:53;;;;;;;0.90;0.90;;;24.70;51.50;;;-147.20;100.00;58430.41;5113272;28;20060;-48
2021/07/10 01:23:22;;;;;;;0.90;0.90;;;24.70;51.50;;;-147.20;100.00;58430.41;5113718;28;20066;-51
2021/07/10 01:25:49;;;;;;;0.80;0.80;;;24.70;51.50;;;-147.20;100.00;58430.41;5095641;28;20043;-51
2021/07/10 01:28:16;;;;;;;0.80;0.80;;;24.60;51.50;;;-147.20;100.00;58430.41;5112414;28;20391;-49
2021/07/10 01:30:43;;;;;;;0.90;0.90;;;24.70;51.60;;;-147.20;100.00;58430.41;5113218;28;20047;-49
2021/07/10 01:33:10;;;;;;;0.95;0.95;;;24.70;51.50;;;-147.20;100.00;58430.41;5113100;28;20130;-51
2021/07/10 01:35:36;;;;;;;1.00;1.00;;;24.60;51.50;;;-147.20;100.00;58430.41;5113414;28;20101;-50
2021/07/10 01:38:11;;;;;;;1.10;1.00;;;24.60;51.50;;;-147.20;100.00;58430.41;5112977;28;20082;-54
2021/07/10 01:40:37;;;;;;;1.13;1.02;;;24.60;51.60;;;-147.20;100.00;58430.41;5113079;28;20089;-50
2021/07/10 01:43:05;;;;;;;0.95;0.95;;;24.60;51.60;;;-147.20;100.00;58430.41;5113054;28;20079;-49
2021/07/10 01:45:33;;;;;;;0.82;0.82;;;24.60;51.60;;;-147.20;100.00;58430.41;5112982;28;20112;-51
2021/07/10 01:48:00;;;;;;;0.90;0.90;;;24.60;51.60;;;-147.20;100.00;58430.41;5113691;28;20067;-48
2021/07/10 01:50:28;;;;;;;0.95;0.95;;;24.60;51.60;;;-147.20;100.00;58430.41;5112890;28;20052;-52
2021/07/10 01:53:00;;;;;;;0.93;0.93;;;24.60;51.60;;;-147.20;100.00;58430.41;5111131;28;20074;-52
2021/07/10 01:55:28;;;;;;;0.75;0.75;;;24.60;51.70;;;-147.20;100.00;58430.41;5112790;28;20096;-54
2021/07/10 01:57:54;;;;;;;0.93;0.80;;;24.60;51.60;;;-147.20;100.00;58430.41;5112809;28;20096;-53
2021/07/10 02:00:38;;;;;;;1.30;1.20;;;24.60;52.20;;;-147.20;100.00;58430.41;5112568;28;20059;-50
2021/07/10 02:03:05;;;;;;;0.80;0.80;;;24.60;51.60;;;-147.20;100.00;58430.41;5113112;28;20050;-52
2021/07/10 02:05:31;;;;;;;1.13;1.00;;;24.60;51.70;;;-147.20;100.00;58430.41;5094586;28;20069;-47
2021/07/10 02:07:59;;;;;;;1.02;1.02;;;24.60;51.70;;;-147.20;100.00;58430.41;5113091;28;20416;-53
2021/07/10 02:10:28;;;;;;;0.75;0.75;;;24.60;51.70;;;-147.20;100.00;58430.41;5116078;28;20078;-53
2021/07/10 02:13:01;;;;;;;0.90;0.90;;;24.60;51.70;;;-147.20;100.00;58430.41;5116202;28;20047;-46
2021/07/10 02:15:27;;;;;;;0.70;0.70;;;24.50;51.70;;;-147.20;100.00;58430.41;5098334;28;20467;-52
2021/07/10 02:17:54;;;;;;;0.90;0.90;;;24.60;51.70;;;-147.20;100.00;58430.41;5097825;28;20048;-47
2021/07/10 02:20:23;;;;;;;1.00;1.00;;;24.60;51.80;;;-147.20;100.00;58430.41;5116333;28;20048;-53
2021/07/10 02:22:50;;;;;;;0.95;0.90;;;24.60;51.80;;;-147.20;100.00;58430.41;5116445;28;20047;-49
2021/07/10 02:25:19;;;;;;;0.90;0.90;;;24.50;51.70;;;-147.20;100.00;58430.41;5097283;28;20048;-50
2021/07/10 02:27:45;;;;;;;0.90;0.90;;;24.50;51.70;;;-147.20;100.00;58430.41;5115987;28;20063;-51
2021/07/10 02:30:17;;;;;;;0.82;0.82;;;24.50;51.80;;;-147.20;100.00;58430.41;5115712;28;20376;-47
2021/07/10 02:32:44;;;;;;;0.85;0.85;;;24.50;51.80;;;-147.20;100.00;58430.41;5116135;28;20052;-52
2021/07/10 02:35:12;;;;;;;0.90;0.90;;;24.50;51.80;;;-147.20;100.00;58430.41;5115859;28;20134;-52
2021/07/10 02:37:38;;;;;;;1.08;1.08;;;24.50;51.80;;;-147.20;100.00;58430.41;5115851;28;20039;-52
2021/07/10 02:40:08;;;;;;;1.05;1.00;;;24.50;51.80;;;-147.20;100.00;58430.41;5115481;28;20056;-49
2021/07/10 02:42:35;;;;;;;1.10;1.10;;;24.50;51.90;;;-147.20;100.00;58430.41;5115828;28;20054;-51
2021/07/10 02:45:02;;;;;;;0.90;0.90;;;24.50;51.90;;;-147.20;100.00;58430.41;5115815;28;20100;-48
2021/07/10 02:47:28;;;;;;;1.00;1.00;;;24.50;51.90;;;-147.20;100.00;58430.41;5115837;28;20388;-51
2021/07/10 02:49:54;;;;;;;0.90;0.88;;;24.50;51.90;;;-147.20;100.00;58430.41;5116272;28;20044;-50
2021/07/10 02:52:20;;;;;;;1.05;0.90;;;24.50;51.90;;;-147.20;100.00;58430.41;5116084;28;20048;-52
2021/07/10 02:54:46;;;;;;;1.00;1.00;;;24.50;51.90;;;-147.20;100.00;58430.41;5115651;28;20454;-52
2021/07/10 02:57:11;;;;;;;0.82;0.82;;;24.50;51.90;;;-147.20;100.00;58430.41;5115574;28;20126;-50
2021/07/10 02:59:37;;;;;;;1.02;0.80;;;24.40;51.90;;;-147.20;100.00;58430.41;5115397;28;20480;-48
2021/07/10 03:02:05;;;;;;;0.85;0.85;;;24.50;51.90;;;-147.20;100.00;58430.41;5115532;28;20043;-54
2021/07/10 03:04:31;;;;;;;1.00;1.00;;;24.40;51.90;;;-147.20;100.00;58430.41;5115351;28;20130;-51
2021/07/10 03:06:57;;;;;;;1.00;1.00;;;24.40;52.40;;;-147.20;100.00;58430.41;5116007;28;20050;-52
2021/07/10 03:09:23;;;;;;;0.90;0.90;;;24.50;52.00;;;-147.20;100.00;58430.41;5115930;28;20082;-49
2021/07/10 03:11:49;;;;;;;0.80;0.80;;;24.50;52.00;;;-147.20;100.00;58430.41;5115430;28;20044;-54
2021/07/10 03:14:15;;;;;;;0.80;0.80;;;24.50;52.00;;;-147.20;100.00;58430.41;5115528;28;20109;-47
2021/07/10 03:16:42;;;;;;;1.10;1.10;;;24.50;52.00;;;-147.20;100.00;58430.41;5115231;28;20044;-48
2021/07/10 03:19:08;;;;;;;0.80;0.80;;;24.40;52.00;;;-147.20;100.00;58430.41;5114641;28;20056;-50
2021/07/10 03:21:34;;;;;;;0.90;0.90;;;24.40;51.90;;;-147.20;100.00;58430.41;5114394;28;20395;-54
2021/07/10 03:23:59;;;;;;;1.23;1.15;;;24.40;52.00;;;-147.20;100.00;58430.41;5115547;28;20047;-51
2021/07/10 03:26:25;;;;;;;1.15;1.15;;;24.40;52.00;;;-147.20;100.00;58430.41;5115075;28;20048;-53
2021/07/10 03:28:51;;;;;;;1.00;1.00;;;24.40;52.00;;;-147.20;100.00;58430.41;5115074;28;20059;-53
2021/07/10 03:31:17;;;;;;;0.90;0.90;;;24.40;52.00;;;-147.20;100.00;58430.41;5115087;28;20040;-51
2021/07/10 03:33:44;;;;;;;0.95;0.93;;;24.40;52.00;;;-147.20;100.00;58430.41;5115316;28;20059;-48
2021/07/10 03:36:11;;;;;;;0.90;0.90;;;24.40;52.00;;;-147.20;100.00;58430.41;5115069;28;20044;-48
2021/07/10 03:38:39;;;;;;;1.00;0.90;;;24.40;52.00;;;-147.20;100.00;58430.41;5114971;28;20097;-49
2021/07/10 03:41:05;;;;;;;1.10;1.10;;;24.40;52.00;;;-147.20;100.00;58430.41;5114858;28;20043;-49
2021/07/10 03:43:31;;;;;;;1.00;1.00;;;24.40;52.00;;;-147.20;100.00;58430.41;5113495;28;20044;-48
2021/07/10 03:45:59;;;;;;;1.35;1.25;;;24.40;52.10;;;-147.20;100.00;58430.41;5114994;28;20391;-48
2021/07/10 03:48:25;;;;;;;0.70;0.70;;;24.40;52.10;;;-147.20;100.00;58430.41;5114767;28;20074;-48
2021/07/10 03:50:51;;;;;;;0.90;0.90;;;24.40;52.10;;;-147.20;100.00;58430.41;5114623;28;20479;-49
2021/07/10 03:53:17;;;;;;;0.80;0.80;;;24.40;52.10;;;-147.20;100.00;58430.41;5114729;28;20058;-49
2021/07/10 03:55:43;;;;;;;1.00;1.00;;;24.40;52.10;;;-147.20;100.00;58430.41;5114981;28;20451;-51
2021/07/10 03:58:10;;;;;;;0.90;0.90;;;24.40;52.10;;;-147.20;100.00;58430.41;5114566;28;20055;-49
2021/07/10 04:00:35;;;;;;;0.90;0.90;;;24.40;52.10;;;-147.20;100.00;58430.41;5114689;28;20399;-47
2021/07/10 04:03:03;;;;;;;1.00;1.00;;;24.40;52.10;;;-147.20;100.00;58430.41;5114752;28;20096;-48
2021/07/10 04:05:29;;;;;;;0.80;0.80;;;24.30;52.10;;;-147.20;100.00;58430.41;5114340;28;20498;-49
2021/07/10 04:07:55;;;;;;;1.05;1.00;;;24.40;52.10;;;-147.20;100.00;58430.41;5114971;28;20134;-48
2021/07/10 04:10:21;;;;;;;1.00;1.00;;;24.40;52.20;;;-147.20;100.00;58430.41;5112137;28;20075;-50
2021/07/10 04:12:47;;;;;;;0.80;0.80;;;24.40;52.20;;;-147.20;100.00;58430.41;5114258;28;20048;-46
2021/07/10 04:15:16;;;;;;;1.00;1.00;;;24.30;52.10;;;-147.20;100.00;58430.41;5078574;28;20133;-51
2021/07/10 04:17:42;;;;;;;0.80;0.80;;;24.30;52.10;;;-147.20;100.00;58430.41;5114987;28;20048;-48
2021/07/10 04:20:10;;;;;;;1.02;1.02;;;24.30;52.10;;;-147.20;100.00;58430.41;5113924;28;20055;-51
2021/07/10 04:22:36;;;;;;;0.85;0.85;;;24.30;52.10;;;-147.20;100.00;58430.41;5114231;28;20410;-50
2021/07/10 04:25:05;;;;;;;1.00;1.00;;;24.30;52.20;;;-147.20;100.00;58430.41;5114134;28;20483;-52
2021/07/10 04:27:31;;;;;;;0.90;0.90;;;24.30;52.10;;;-147.20;100.00;58430.41;5113940;28;20126;-49
2021/07/10 04:29:58;;;;;;;0.90;0.90;;;24.30;52.20;;;-147.20;100.00;58430.41;5114079;28;20540;-47
2021/07/10 04:32:24;;;;;;;1.08;1.08;;;24.30;52.20;;;-147.20;100.00;58430.41;5114020;28;20046;-50
2021/07/10 04:34:49;;;;;;;1.08;1.05;;;24.30;52.20;;;-147.20;100.00;58430.41;5113979;28;20047;-49
2021/07/10 04:37:15;;;;;;;1.13;1.02;;;24.30;52.20;;;-147.20;100.00;58430.41;5114138;28;20051;-47
2021/07/10 04:39:41;;;;;;;0.85;0.85;;;24.30;52.20;;;-147.20;100.00;58430.41;5113816;28;20051;-46
2021/07/10 04:42:08;;;;;;;1.20;1.20;;;24.30;52.20;;;-147.20;100.00;58430.41;5113933;28;20074;-50
2021/07/10 04:44:34;;;;;;;0.88;0.88;;;24.30;52.20;;;-147.20;100.00;58430.41;5095486;28;20092;-45
2021/07/10 04:47:00;;;;;;;0.95;0.95;;;24.30;52.20;;;-147.20;100.00;58430.41;5113888;28;20494;-51
2021/07/10 04:49:26;;;;;;;1.10;1.10;;;24.30;52.20;;;-147.20;100.00;58430.41;5113783;28;20055;-50
2021/07/10 04:51:51;;;;;;;1.15;1.05;;;24.30;52.20;;;-147.20;100.00;58430.41;5114329;28;20050;-49
2021/07/10 04:54:17;;;;;;;1.05;1.00;;;24.30;52.20;;;-147.20;100.00;58430.41;5113778;28;20092;-48
2021/07/10 04:56:43;;;;;;;0.95;0.95;;;24.30;52.20;;;-147.20;100.00;58430.41;5095262;28;20050;-50
2021/07/10 04:59:09;;;;;;;1.10;1.00;;;24.30;52.20;;;-147.20;100.00;58430.41;5113836;28;20147;-48
2021/07/10 05:01:34;;;;;;;1.10;1.10;;;24.30;52.20;;;-147.20;100.00;58430.41;5113659;28;20453;-52
2021/07/10 05:04:00;;;;;;;1.00;1.00;;;24.30;52.20;;;-147.20;100.00;58430.41;5113503;28;20066;-49
2021/07/10 05:06:26;;;;;;;1.08;1.00;;;24.30;52.30;;;-147.20;100.00;58430.41;5113893;28;20066;-50
2021/07/10 05:08:52;;;;;;;1.73;1.02;;;24.30;52.20;;;-147.20;100.00;58430.41;5114020;28;20104;-49
2021/07/10 05:11:18;;;;;;;1.30;1.20;;;24.30;52.20;;;-147.20;100.00;58430.41;5113524;28;20050;-50
2021/07/10 05:13:44;;;;;;;0.90;0.90;;;24.30;52.20;;;-147.20;100.00;58430.41;5113657;28;20054;-52
2021/07/10 05:16:10;;;;;;;1.00;1.00;;;24.30;52.20;;;-147.20;100.00;58430.41;5113368;28;20130;-50
2021/07/10 05:18:36;;;;;;;0.93;0.90;;;24.30;52.20;;;-147.20;100.00;58430.41;5113370;28;20479;-49
2021/07/10 05:21:01;;;;;;;1.30;1.20;;;24.30;52.20;;;-147.20;100.00;58430.41;5113245;28;20487;-51
2021/07/10 05:23:27;;;;;;;1.00;1.00;;;24.30;52.20;;;-147.20;100.00;58430.41;5113299;28;20044;-53
2021/07/10 05:25:53;;;;;;;1.00;1.00;;;24.30;52.20;;;-147.20;100.00;58430.41;5095058;28;20058;-48
2021/07/10 05:28:19;;;;;;;1.10;1.10;;;24.30;52.20;;;-147.20;100.00;58430.41;5113662;28;20414;-52
2021/07/10 05:30:47;;;;;;;0.80;0.80;;;24.30;52.20;;;-147.20;100.00;58430.41;5113189;28;20046;-51
2021/07/10 05:33:14;;;;;;;1.10;1.00;;;24.30;52.20;;;-147.20;100.00;58430.41;5113781;28;20059;-51
2021/07/10 05:35:40;;;;;;;0.85;0.85;;;24.30;52.20;;;-147.20;100.00;58430.41;5110778;28;20044;-46
2021/07/10 05:38:07;;;;;;;0.90;0.90;;;24.30;52.20;;;-147.20;100.00;58430.41;5113143;28;20380;-48
2021/07/10 05:40:32;;;;;;;1.70;1.23;;;24.30;52.20;;;-147.20;100.00;58430.41;5113083;28;20054;-47
2021/07/10 05:42:59;;;;;;;1.00;1.00;;;24.30;52.20;;;-147.20;100.00;58430.41;5094587;28;20487;-51
2021/07/10 05:45:25;;;;;;;1.00;1.00;;;24.30;52.20;;;-147.20;100.00;58430.41;5113336;28;20059;-53
2021/07/10 05:47:51;;;;;;;1.20;1.10;;;24.30;52.20;;;-147.20;100.00;58430.41;5113268;28;20040;-48
2021/07/10 05:50:17;;;;;;;1.10;1.10;;;24.30;52.20;;;-147.20;100.00;58430.41;5112793;28;20048;-47
2021/07/10 05:52:43;;;;;;;1.10;1.10;;;24.30;52.10;;;-147.20;100.00;58430.41;5094573;28;20130;-47
2021/07/10 05:55:09;;;;;;;1.02;1.02;;;24.40;52.10;;;-147.20;100.00;58430.41;5112809;28;20043;-48
2021/07/10 05:57:35;;;;;;;1.08;1.05;;;24.40;52.10;;;-147.20;100.00;58430.41;5112519;28;20059;-49
2021/07/10 06:00:01;;;;;;;1.13;1.13;;;24.40;52.00;;;-147.20;100.00;58430.41;5112621;28;20403;-48
2021/07/10 06:02:26;;;;;;;1.20;1.10;;;24.40;52.00;;;-147.20;100.00;58430.41;5112666;28;20074;-51
2021/07/10 06:04:52;;;;;;;1.00;1.00;;;24.40;51.90;;;-147.20;100.00;58430.41;5112697;28;20054;-49
2021/07/10 06:07:19;;;;;;;0.88;0.88;;;24.40;51.90;;;-147.20;100.00;58430.41;5112599;28;20479;-50
2021/07/10 06:09:45;;;;;;;1.20;1.10;;;24.50;51.90;;;-147.20;100.00;58430.41;5112969;28;20391;-45
2021/07/10 06:12:10;;;;;;;1.17;1.13;;;24.40;51.90;;;-147.20;100.00;58430.41;5113061;28;20052;-48
2021/07/10 06:14:36;;;;;;;1.15;1.10;;;24.40;51.90;;;-147.20;100.00;58430.41;5112530;28;20475;-48
2021/07/10 06:17:04;;;;;;;1.10;1.10;;;24.40;51.90;;;-147.20;100.00;58430.41;5112710;28;20040;-51
2021/07/10 06:19:30;;;;;;;1.08;1.08;;;24.50;51.90;;;-147.20;100.00;58430.41;5112784;28;20081;-53
2021/07/10 06:21:56;;;;;;;1.15;1.10;;;24.40;51.80;;;-147.20;100.00;58430.41;5112950;28;20132;-49
2021/07/10 06:24:23;;;;;;;1.13;1.10;;;24.50;51.90;;;-147.20;100.00;58430.41;5112554;28;20044;-49
2021/07/10 06:26:48;;;;;;;1.30;1.20;;;24.50;51.80;;;-147.20;100.00;58430.41;5112526;28;20044;-47
2021/07/10 06:29:14;;;;;;;1.15;1.05;;;24.50;51.70;;;-147.20;100.00;58430.41;5094180;28;20136;-48
2021/07/10 06:31:40;;;;;;;0.90;0.90;;;24.60;51.70;;;-147.20;100.00;58430.41;5112411;28;20062;-48
2021/07/10 06:34:06;;;;;;;1.00;1.00;;;24.60;51.60;;;-147.20;100.00;58430.41;5112733;28;20044;-50
2021/07/10 06:36:33;;;;;;;0.90;0.90;;;24.60;51.60;;;-147.20;100.00;58430.41;5112643;28;20086;-52
2021/07/10 06:38:59;;;;;;;1.10;1.00;;;24.60;51.60;;;-147.20;100.00;58430.41;5112225;28;20085;-49
2021/07/10 06:41:25;;;;;;;1.27;1.20;;;24.60;51.50;;;-147.20;100.00;58430.41;5112219;28;20048;-48
2021/07/10 06:43:50;;;;;;;1.05;1.05;;;24.70;51.50;;;-147.20;100.00;58430.41;5112341;28;20464;-48
2021/07/10 06:46:16;;;;;;;1.10;1.10;;;24.70;51.40;;;-147.20;100.00;58430.41;5112198;28;20052;-51
2021/07/10 06:48:42;;;;;;;1.10;1.10;;;24.70;51.30;;;-147.20;100.00;58430.41;5112096;28;20176;-50
2021/07/10 06:51:08;;;;;;;1.55;1.00;;;24.70;51.30;;;-147.20;100.00;58430.41;5110781;28;20052;-49
2021/07/10 06:53:33;;;;;;;1.50;1.40;;;24.80;51.20;;;-147.20;100.00;58430.41;5112135;28;20168;-47
2021/07/10 06:55:59;;;;;;;0.90;0.90;;;24.90;51.60;;;-147.20;100.00;58430.41;5115533;28;20443;-50
2021/07/10 06:58:25;;;;;;;0.80;0.80;;;24.90;50.90;;;-147.20;100.00;58430.41;5115425;28;20071;-49
2021/07/10 07:00:51;;;;;;;1.40;1.30;;;24.90;50.90;;;-147.20;100.00;58430.41;5115863;28;20077;-50
2021/07/10 07:03:17;;;;;;;1.10;1.10;;;24.90;50.90;;;-147.20;100.00;58430.41;5115630;28;20047;-51
2021/07/10 07:05:43;;;;;;;1.10;1.10;;;24.90;50.90;;;-147.20;100.00;58430.41;5115651;28;20086;-49
2021/07/10 07:08:08;;;;;;;1.00;0.93;;;24.90;50.90;;;-147.20;100.00;58430.41;5115518;28;20131;-49
2021/07/10 07:10:34;;;;;;;1.00;1.00;;;24.90;50.90;;;-147.20;100.00;58430.41;5115365;28;20078;-49
2021/07/10 07:13:01;;;;;;;1.33;1.20;;;24.80;50.90;;;-147.20;100.00;58430.41;5115369;28;20040;-49
2021/07/10 07:15:28;;;;;;;1.00;1.00;;;24.80;50.90;;;-147.20;100.00;58430.41;5113573;28;20047;-49
2021/07/10 07:17:54;;;;;;;1.10;1.10;;;24.80;50.90;;;-147.20;100.00;58430.41;5115365;28;20122;-53
2021/07/10 07:20:19;;;;;;;1.08;1.02;;;24.80;51.00;;;-147.20;100.00;58430.41;5115285;28;20059;-51
2021/07/10 07:22:48;;;;;;;1.10;1.10;;;24.80;50.90;;;-147.20;100.00;58430.41;5115858;28;20107;-52
2021/07/10 07:25:17;;;;;;;1.67;1.02;;;24.80;50.90;;;-147.20;100.00;58430.41;5115094;28;20087;-52
2021/07/10 07:27:43;;;;;;;0.98;0.98;;;24.80;51.00;;;-147.20;100.00;58430.41;5096884;28;20096;-49
2021/07/10 07:30:10;;;;;;;1.15;1.10;;;24.80;50.90;;;-147.20;100.00;58430.41;5095470;28;20480;-54
2021/07/10 07:32:36;;;;;;;1.05;1.00;;;24.80;51.00;;;-147.20;100.00;58430.41;5097107;28;20435;-52
2021/07/10 07:35:04;;;;;;;1.08;1.08;;;24.80;51.00;;;-147.20;100.00;58430.41;5114970;28;20052;-47
2021/07/10 07:37:30;;;;;;;1.00;1.00;;;24.80;51.00;;;-147.20;100.00;58430.41;5096901;28;20066;-48
2021/07/10 07:39:56;;;;;;;1.10;1.10;;;24.80;51.00;;;-147.20;100.00;58430.41;5114897;28;20437;-50
2021/07/10 07:42:22;;;;;;;0.82;0.82;;;24.80;51.00;;;-147.20;100.00;58430.41;5115010;28;20054;-50
2021/07/10 07:44:48;;;;;;;0.98;0.98;;;24.80;51.00;;;-147.20;100.00;58430.41;5114850;28;20047;-50
2021/07/10 07:47:17;;;;;;;0.90;0.90;;;24.80;51.00;;;-147.20;100.00;58430.41;5114929;28;20499;-50
2021/07/10 07:49:45;;;;;;;0.90;0.90;;;24.90;51.00;;;-147.20;100.00;58430.41;5115070;28;20418;-51
2021/07/10 07:52:11;;;;;;;1.20;1.10;;;24.90;50.90;;;-147.20;100.00;58430.41;5115420;28;20040;-49
2021/07/10 07:54:37;;;;;;;0.90;0.90;;;24.90;50.80;;;-147.20;100.00;58430.41;5114732;28;20054;-53
2021/07/10 07:57:04;;;;;;;0.90;0.90;;;24.90;50.80;;;-147.20;100.00;58430.41;5113120;28;20039;-47
2021/07/10 07:59:30;;;;;;;1.15;0.90;;;25.00;50.70;;;-147.20;100.00;58430.41;5114595;28;20044;-49
2021/07/10 08:01:56;;;;;;;0.88;0.88;;;25.00;50.70;;;-147.20;100.00;58430.41;5114622;28;20047;-49
2021/07/10 08:04:23;;;;;;;1.27;1.17;;;25.00;50.60;;;-147.20;100.00;58430.41;5114400;28;20441;-48
2021/07/10 08:06:48;;;;;;;1.00;1.00;;;25.10;50.50;;;-147.20;100.00;58430.41;5114080;28;20044;-52
2021/07/10 08:09:14;;;;;;;0.80;0.80;;;25.00;50.40;;;-147.20;100.00;58430.41;5114405;28;20087;-47
2021/07/10 08:11:40;;;;;;;1.00;1.00;;;25.10;50.40;;;-147.20;100.00;58430.41;5114570;28;20059;-47
2021/07/10 08:14:07;;;;;;;1.08;1.08;;;25.10;50.40;;;-147.20;100.00;58430.41;5114860;28;20050;-48
2021/07/10 08:16:32;;;;;;;1.20;1.10;;;25.10;50.40;;;-147.20;100.00;58430.41;5096187;28;20047;-51
2021/07/10 08:18:59;;;;;;;1.10;1.10;;;25.10;50.40;;;-147.20;100.00;58430.41;5114200;28;20134;-48
2021/07/10 08:21:27;;;;;;;1.30;1.20;;;25.10;50.30;;;-147.20;100.00;58430.41;5114569;28;20051;-52
2021/07/10 08:23:54;;;;;;;0.90;0.90;;;25.10;50.30;;;-147.20;100.00;58430.41;5114161;28;20074;-49
2021/07/10 08:26:20;;;;;;;0.90;0.90;;;25.20;50.30;;;-147.20;100.00;58430.41;5114398;28;20448;-49
2021/07/10 08:28:46;;;;;;;1.30;1.20;;;25.20;50.20;;;-147.20;100.00;58430.41;5113907;28;20047;-47
2021/07/10 08:31:12;;;;;;;1.17;1.17;;;25.20;50.20;;;-147.20;100.00;58430.41;5114134;28;20047;-49
2021/07/10 08:33:38;;;;;;;0.90;0.90;;;25.20;50.10;;;-147.20;100.00;58430.41;5114050;28;20048;-46
2021/07/10 08:36:05;;;;;;;1.00;1.00;;;25.20;50.10;;;-147.20;100.00;58430.41;5114005;28;20051;-45
2021/07/10 08:38:30;;;;;;;0.90;0.90;;;25.20;50.10;;;-147.20;100.00;58430.41;5093059;28;20477;-46
2021/07/10 08:40:56;;;;;;;1.05;1.00;;;25.20;50.10;;;-147.20;100.00;58430.41;5113830;28;20050;-51
2021/07/10 08:43:23;;;;;;;0.95;0.93;;;25.30;50.10;;;-147.20;100.00;58430.41;5113826;28;20550;-47
2021/07/10 08:45:49;;;;;;;0.90;0.90;;;25.30;49.90;;;-147.20;100.00;58430.41;5114247;28;20041;-49
2021/07/10 08:48:16;;;;;;;1.08;1.00;;;25.40;49.90;;;-147.20;100.00;58430.41;5095939;28;20047;-49
2021/07/10 08:50:42;;;;;;;1.35;1.25;;;25.40;49.70;;;-147.20;100.00;58430.41;5111793;28;20441;-47
2021/07/10 08:53:08;;;;;;;1.00;1.00;;;25.50;49.70;;;-147.20;100.00;58430.41;5113805;28;20040;-53
2021/07/10 08:55:36;;;;;;;1.00;1.00;;;25.50;49.50;;;-147.20;100.00;58430.41;5114182;28;20040;-49
2021/07/10 08:58:05;;;;;;;1.00;1.00;;;25.60;49.60;;;-147.20;100.00;58430.41;5113644;28;20050;-52
2021/07/10 09:00:41;;;;;;;0.95;0.95;;;25.60;49.40;;;-147.20;100.00;58430.41;5113671;28;20040;-51
2021/07/10 09:03:08;;;;;;;1.33;1.23;;;25.50;49.30;;;-147.20;100.00;58430.41;5113915;28;20051;-51
2021/07/10 09:05:34;;;;;;;0.93;0.93;;;25.60;49.40;;;-147.20;100.00;58430.41;5114213;28;20043;-50
2021/07/10 09:08:20;;;;;;;0.98;0.98;;;25.60;49.40;;;-147.20;100.00;58430.41;5113393;28;20044;-52
2021/07/10 09:11:08;;;;;;;1.13;1.13;;;25.60;49.40;;;-147.20;100.00;58430.41;5095562;28;20050;-52
2021/07/10 09:13:43;;;;;;;0.90;0.90;;;25.50;49.40;;;-147.20;100.00;58430.41;5113851;28;20054;-50
2021/07/10 09:16:18;;;;;;;0.90;0.90;;;25.60;49.40;;;-147.20;100.00;58430.41;5113910;28;20075;-46
2021/07/10 09:18:54;;;;;;;0.95;0.95;;;25.60;49.40;;;-147.20;100.00;58430.41;5112803;28;20138;-53
2021/07/10 09:21:40;;;;;;;1.23;1.20;;;25.60;49.30;;;-147.20;100.00;58430.41;5113354;28;20044;-46
2021/07/10 09:24:16;;;;;;;1.00;1.00;;;25.70;49.30;;;-147.20;100.00;58430.41;5113281;28;20559;-51
2021/07/10 09:26:49;;;;;;;1.00;1.00;;;25.70;49.20;;;-147.20;100.00;58430.41;5113913;28;20464;-47
2021/07/10 09:29:32;;;;;;;1.25;1.15;;;25.80;49.70;;;-147.20;100.00;58430.41;5095204;28;20493;-54
2021/07/10 09:32:05;;;;;;;1.00;1.00;;;25.70;49.00;;;-147.20;100.00;58430.41;5095127;28;20054;-51
2021/07/10 09:34:45;;;;;;;0.90;0.90;;;25.70;49.00;;;-147.20;100.00;58430.41;5113353;28;20044;-50
2021/07/10 09:37:15;;;;;;;1.30;1.20;;;25.80;49.00;;;-147.20;100.00;58430.41;5112975;28;20112;-46
2021/07/10 09:39:59;;;;;;;1.00;1.00;;;25.70;49.00;;;-147.20;100.00;58430.41;5113066;28;20139;-54
2021/07/10 09:42:38;;;;;;;1.02;1.02;;;25.70;49.00;;;-147.20;100.00;58430.41;5113322;28;20075;-50
2021/07/10 09:45:15;;;;;;;0.82;0.82;;;25.70;49.10;;;-147.20;100.00;58430.41;5112860;28;20139;-50
2021/07/10 09:47:42;;;;;;;1.10;1.00;;;25.70;49.10;;;-147.20;100.00;58430.41;5093791;28;20102;-51
2021/07/10 09:50:10;;;;;;;0.90;0.90;;;25.60;49.60;;;-147.20;100.00;58430.41;5113494;28;20055;-50
2021/07/10 09:52:38;;;;;;;1.10;1.00;;;25.70;49.10;;;-147.20;100.00;58430.41;5092860;28;20135;-51
2021/07/10 09:55:11;;;;;;;1.08;1.08;;;25.70;49.10;;;-147.20;100.00;58430.41;5113109;28;20134;-53
2021/07/10 09:57:39;;;;;;;1.00;1.00;;;25.70;49.00;;;-147.20;100.00;58430.41;5113123;28;20035;-50
2021/07/10 10:00:14;;;;;;;0.80;0.80;;;25.70;49.20;;;-147.20;100.00;58430.41;5112851;28;20048;-48